Terminal Aerodrome Forecast
Issued by NWS Mt. Holly, NJ

Home | Current Version | Previous Version | Text Only | Print | Product List | Glossary On
Versions: 1 2 3 4 5 6 7 8 9 10 11 12 13 14 15 16 17 18 19 20 21 22 23 24 25 26 27
815
FTUS41 KPHI 280832 AAA
TAFPHL
TAF AMD
KPHL 280832Z 2809/2912 05008KT P6SM OVC008
     FM281100 06005KT 4SM BR OVC005
     FM281300 VRB03KT P6SM OVC007
     FM281500 16005KT P6SM OVC012
     FM281800 19005KT P6SM BKN025
     FM290600 VRB02KT 6SM BR BKN010=

USA.gov is the U.S. government's official web portal to all federal, state and local government web resources and services.